Impacts METAR Board INFO
IDs:

KFLL - Ft Lauderdale-Hollyw, FL, US

Updated at: 2030 UTC 22 Feb 2018
Potential Impact None Slight Moderate High
Time22/08Z 22/09Z 22/10Z 22/11Z 22/12Z 22/13Z 22/14Z 22/15Z 22/16Z 22/17Z 22/18Z 22/19Z 22/20Z
VIS10 9 10 10 10 10 10 10 10 10 10 10 10
CIG-- 44 41 50 46 75 65 -- -- 75 75 47 75
CoverFEWOVCBKNBKNOVCBKNBKNSCTFEWBKNBKNBKNBKN
FltCatVFRVFRVFRVFRVFRVFRVFRVFRVFRVFRVFRVFRVFR
WX--------------------------
WDir11010090100100100100100100100110100100
WSpd16 15 11 16 15 14 18 16 16 18 16 16 14
WGst-- -- -- -- -- -- -- -- -- 23 -- -- --
Raw hourly METARs
KFLL 220753Z 11016KT 10SM FEW025 FEW040 24/21 A3030 RMK AO2 SLP259 T02390206
KFLL 220853Z 10015KT 9SM SCT023 BKN044 OVC050 23/22 A3029 RMK AO2 RAB20E30 SLP256 P0000 60000 T02330217 58009
KFLL 220953Z 09011KT 10SM FEW022 BKN041 BKN050 23/21 A3029 RMK AO2 RAB35E45 SLP257 P0000 T02280211
KFLL 221053Z 10016KT 10SM FEW040 BKN050 BKN075 24/21 A3030 RMK AO2 SLP261 T02390206
KFLL 221153Z 10015KT 10SM FEW025 BKN046 OVC075 24/21 A3032 RMK AO2 SLP267 60000 T02390206 10244 20228 53011
KFLL 221253Z 10014KT 10SM FEW025 SCT045 BKN075 24/21 A3034 RMK AO2 SLP273 T02440211
KFLL 221353Z 10018KT 10SM SCT045 BKN065 26/22 A3035 RMK AO2 SLP276 T02560217
KFLL 221453Z 10016KT 10SM SCT027 26/21 A3036 RMK AO2 SLP280 T02610211 51013
KFLL 221553Z 10016KT 10SM FEW027 FEW045 27/21 A3037 RMK AO2 SLP282 T02720211
KFLL 221653Z 10018G23KT 10SM SCT025 SCT045 BKN075 27/21 A3035 RMK AO2 SLP278 T02720206
KFLL 221753Z 11016KT 10SM FEW025 FEW045 BKN075 28/21 A3034 RMK AO2 SLP272 T02780211 10278 20239 58008
KFLL 221853Z 10016KT 10SM FEW027 BKN047 BKN075 26/21 A3032 RMK AO2 SLP267 T02610206
KFLL 221953Z 10014KT 10SM FEW027 FEW049 BKN075 27/21 A3030 RMK AO2 SLP261 T02670211